Polikhnitos, Greece
Current Conditions -  °F | °C
As of 9:50 PM on Sunday 23 Nov 2014 (Local Time) from LGMT Reporting Station
Scattered Clouds Scattered Clouds  
Wind Chill: 52°   Ceiling: Unl
Heat Index: 52°   Visibility: 6mi
Dew Point: 45°   Wind: 14mph
Humidity: 76%   Direction: 360°N
Pressure: 30.21"   Gusts: NA
Location:  39.08°N, 26.18°E
Report Text: LGMT 231950Z 36012KT 9999 SCT025 11/07 Q1023
Loading
Personal Weather Stations






























Interactive Weather Map New forecast layout! Learn more

10-Day Weather Forecast

Advertisements
Track Severe Weather on mobile